createdAt,value
2017-12-13T00:00:14.857Z,-11.18
2017-12-13T00:01:24.553Z,-11.17
2017-12-13T00:02:34.532Z,-11.24
2017-12-13T00:03:44.240Z,-11.23
2017-12-13T00:04:53.946Z,-11.24
2017-12-13T00:06:03.926Z,-11.26
2017-12-13T00:07:13.901Z,-11.16
2017-12-13T00:08:23.871Z,-11.24
2017-12-13T00:09:33.838Z,-11.17
2017-12-13T00:10:43.809Z,-11.21
2017-12-13T00:11:53.788Z,-11.26
2017-12-13T00:13:03.764Z,-11.07
2017-12-13T00:14:13.733Z,-11.23
2017-12-13T00:15:23.455Z,-11.16
2017-12-13T00:16:33.439Z,-11.1
2017-12-13T00:17:43.160Z,-11.02
2017-12-13T00:18:53.137Z,-11.1
2017-12-13T00:20:02.578Z,-10.97
2017-12-13T00:21:12.550Z,-10.88
2017-12-13T00:22:22.522Z,-10.97
2017-12-13T00:23:32.507Z,-10.99
2017-12-13T00:24:42.479Z,-11.02
2017-12-13T00:25:52.451Z,-11.06
2017-12-13T00:27:02.424Z,-11.13
2017-12-13T00:28:12.396Z,-11.2
2017-12-13T00:29:22.365Z,-11.29
2017-12-13T00:30:32.390Z,-11.35
2017-12-13T00:31:42.365Z,-11.44
2017-12-13T00:32:52.338Z,-11.59
2017-12-13T00:34:02.044Z,-11.53
2017-12-13T00:35:12.020Z,-11.59
2017-12-13T00:36:21.729Z,-11.67
2017-12-13T00:37:31.432Z,-11.59
2017-12-13T00:38:41.404Z,-11.56
2017-12-13T00:39:51.385Z,-11.58
2017-12-13T00:41:01.095Z,-11.55
2017-12-13T00:42:10.819Z,-11.55
2017-12-13T00:43:20.800Z,-11.59
2017-12-13T00:44:30.242Z,-11.56
2017-12-13T00:45:40.215Z,-11.44
2017-12-13T00:46:50.192Z,-11.44
2017-12-13T00:48:00.159Z,-11.44
2017-12-13T00:49:10.163Z,-11.49
2017-12-13T00:50:20.135Z,-11.53
2017-12-13T00:51:29.849Z,-11.45
2017-12-13T00:52:39.817Z,-11.53
2017-12-13T00:53:49.519Z,-11.52
2017-12-13T00:54:59.491Z,-11.5
2017-12-13T00:56:09.202Z,-11.53
2017-12-13T00:57:19.173Z,-11.55
2017-12-13T00:58:28.877Z,-11.58
2017-12-13T00:59:38.845Z,-11.52
2017-12-13T01:00:48.823Z,-11.55
2017-12-13T01:01:58.797Z,-11.42
2017-12-13T01:03:08.769Z,-11.45
2017-12-13T01:04:18.772Z,-11.52
2017-12-13T01:05:28.764Z,-11.55
2017-12-13T01:06:38.469Z,-11.45
2017-12-13T01:07:48.438Z,-11.5
2017-12-13T01:08:58.414Z,-11.48
2017-12-13T01:10:08.118Z,-11.34
2017-12-13T01:11:18.141Z,-11.37
2017-12-13T01:12:28.120Z,-11.37
2017-12-13T01:13:38.086Z,-11.26
2017-12-13T01:14:47.792Z,-11.32
2017-12-13T01:15:57.763Z,-11.26
2017-12-13T01:17:07.733Z,-11.31
2017-12-13T01:18:17.707Z,-11.32
2017-12-13T01:19:27.686Z,-11.29
2017-12-13T01:20:37.672Z,-11.24
2017-12-13T01:21:47.652Z,-11.37
2017-12-13T01:22:57.632Z,-11.37
2017-12-13T01:24:07.605Z,-11.37
2017-12-13T01:25:17.586Z,-11.38
2017-12-13T01:26:27.560Z,-11.39
2017-12-13T01:27:37.531Z,-11.44
2017-12-13T01:28:47.507Z,-11.38
2017-12-13T01:29:57.478Z,-11.32
2017-12-13T01:31:07.456Z,-11.35
2017-12-13T01:32:17.433Z,-11.38
2017-12-13T01:33:27.403Z,-11.35
2017-12-13T01:34:37.375Z,-11.39
2017-12-13T01:35:47.344Z,-11.35
2017-12-13T01:36:57.317Z,-11.31
2017-12-13T01:38:07.020Z,-11.45
2017-12-13T01:39:16.726Z,-11.38
2017-12-13T01:40:26.692Z,-11.29
2017-12-13T01:41:36.666Z,-11.32
2017-12-13T01:42:46.399Z,-11.31
2017-12-13T01:43:56.373Z,-11.34
2017-12-13T01:45:06.350Z,-11.29
2017-12-13T01:46:16.374Z,-11.32
2017-12-13T01:47:26.355Z,-11.35
2017-12-13T01:48:36.438Z,-11.32
2017-12-13T01:49:46.457Z,-11.29
2017-12-13T01:50:56.431Z,-11.34
2017-12-13T01:52:06.406Z,-11.38
2017-12-13T01:53:16.382Z,-11.44
2017-12-13T01:54:26.361Z,-11.49
2017-12-13T01:55:36.065Z,-11.38
2017-12-13T01:56:46.037Z,-11.44
2017-12-13T01:57:56.004Z,-11.48
2017-12-13T01:59:05.976Z,-11.53
2017-12-13T02:00:15.951Z,-11.49
2017-12-13T02:01:25.921Z,-11.41
2017-12-13T02:02:35.894Z,-11.44
2017-12-13T02:03:45.865Z,-11.49
2017-12-13T02:04:55.836Z,-11.56
2017-12-13T02:06:05.810Z,-11.58
2017-12-13T02:07:15.786Z,-11.56
2017-12-13T02:08:25.489Z,-11.6
2017-12-13T02:09:35.469Z,-11.68
2017-12-13T02:10:45.436Z,-11.63
2017-12-13T02:11:55.142Z,-11.77
2017-12-13T02:13:05.117Z,-11.88
2017-12-13T02:14:15.093Z,-11.97
2017-12-13T02:15:25.070Z,-11.87
2017-12-13T02:16:35.040Z,-11.99
2017-12-13T02:17:44.484Z,-11.99
2017-12-13T02:18:54.190Z,-11.98
2017-12-13T02:20:03.894Z,-12.03
2017-12-13T02:21:13.602Z,-12.03
2017-12-13T02:22:23.583Z,-12.13
2017-12-13T02:23:33.023Z,-12.12
2017-12-13T02:24:42.998Z,-12.03
2017-12-13T02:25:53.020Z,-11.98
2017-12-13T02:27:02.995Z,-12.08
2017-12-13T02:28:12.968Z,-11.95
2017-12-13T02:29:22.679Z,-11.99
2017-12-13T02:30:32.650Z,-12.08
2017-12-13T02:31:42.396Z,-12.08
2017-12-13T02:32:52.108Z,-11.95
2017-12-13T02:34:01.822Z,-11.98
2017-12-13T02:35:11.805Z,-11.95
2017-12-13T02:36:21.779Z,-12.09
2017-12-13T02:37:31.758Z,-11.99
2017-12-13T02:38:41.474Z,-12.01
2017-12-13T02:39:51.450Z,-12.03
2017-12-13T02:41:01.154Z,-12.08
2017-12-13T02:42:10.859Z,-12.06
2017-12-13T02:43:20.838Z,-11.95
2017-12-13T02:44:30.558Z,-12.01
2017-12-13T02:45:40.276Z,-11.98
2017-12-13T02:46:50.251Z,-11.91
2017-12-13T02:48:00.231Z,-12.01
2017-12-13T02:49:10.253Z,-11.92
2017-12-13T02:50:20.238Z,-11.91
2017-12-13T02:51:30.212Z,-11.89
2017-12-13T02:52:40.196Z,-11.78
2017-12-13T02:53:50.167Z,-11.8
2017-12-13T02:55:00.151Z,-11.74
2017-12-13T02:56:10.123Z,-11.7
2017-12-13T02:57:19.830Z,-11.62
2017-12-13T02:58:29.879Z,-11.68
2017-12-13T02:59:39.858Z,-11.7
2017-12-13T03:00:49.830Z,-11.55
2017-12-13T03:01:59.813Z,-11.49
2017-12-13T03:03:09.782Z,-11.56
2017-12-13T03:04:19.755Z,-11.58
2017-12-13T03:05:29.728Z,-11.58
2017-12-13T03:06:39.765Z,-11.5
2017-12-13T03:07:49.748Z,-11.55
2017-12-13T03:08:59.715Z,-11.56
2017-12-13T03:10:09.687Z,-11.37
2017-12-13T03:11:19.663Z,-11.44
2017-12-13T03:12:29.643Z,-11.41
2017-12-13T03:13:39.664Z,-11.38
2017-12-13T03:14:49.639Z,-11.41
2017-12-13T03:15:59.714Z,-11.38
2017-12-13T03:17:09.684Z,-11.31
2017-12-13T03:18:19.401Z,-11.37
2017-12-13T03:19:29.374Z,-11.16
2017-12-13T03:20:39.342Z,-11.24
2017-12-13T03:21:49.313Z,-11.18
2017-12-13T03:22:59.282Z,-11.18
2017-12-13T03:24:08.722Z,-11.23
2017-12-13T03:25:18.764Z,-11.17
2017-12-13T03:26:28.734Z,-11.06
2017-12-13T03:27:38.701Z,-11.14
2017-12-13T03:28:48.668Z,-11.13
2017-12-13T03:29:58.644Z,-11.14
2017-12-13T03:31:08.640Z,-11.16
2017-12-13T03:32:18.624Z,-11.06
2017-12-13T03:33:28.599Z,-11
2017-12-13T03:34:38.585Z,-10.92
2017-12-13T03:35:48.555Z,-10.8
2017-12-13T03:36:58.526Z,-10.83
2017-12-13T03:38:08.507Z,-10.85
2017-12-13T03:39:18.213Z,-10.76
2017-12-13T03:40:28.183Z,-10.8
2017-12-13T03:41:38.156Z,-10.71
2017-12-13T03:42:48.126Z,-10.78
2017-12-13T03:43:57.843Z,-10.76
2017-12-13T03:45:07.816Z,-10.67
2017-12-13T03:46:17.798Z,-10.77
2017-12-13T03:47:27.776Z,-10.69
2017-12-13T03:48:37.746Z,-10.83
2017-12-13T03:49:47.714Z,-10.78
2017-12-13T03:50:57.695Z,-10.93
2017-12-13T03:52:07.402Z,-10.88
2017-12-13T03:53:17.113Z,-10.81
2017-12-13T03:54:27.086Z,-10.81
2017-12-13T03:55:37.059Z,-10.77
2017-12-13T03:56:47.029Z,-10.77
2017-12-13T03:57:56.735Z,-10.76
2017-12-13T03:59:06.707Z,-10.78
2017-12-13T04:03:33.123Z,-10.8
2017-12-13T04:04:42.831Z,-10.77
2017-12-13T04:05:52.531Z,-10.78
2017-12-13T04:07:02.506Z,-10.88
2017-12-13T04:08:12.212Z,-10.87
2017-12-13T04:09:21.920Z,-10.8
2017-12-13T04:10:31.901Z,-10.74
2017-12-13T04:11:41.874Z,-10.78
2017-12-13T04:12:51.581Z,-10.77
2017-12-13T04:14:01.291Z,-10.73
2017-12-13T04:15:14.764Z,-10.8
2017-12-13T04:16:24.207Z,-10.83
2017-12-13T04:17:34.183Z,-10.81
2017-12-13T04:18:44.155Z,-10.76
2017-12-13T04:19:54.245Z,-10.76
2017-12-13T04:21:03.952Z,-10.8
2017-12-13T04:22:13.663Z,-10.87
2017-12-13T04:23:23.369Z,-10.78
2017-12-13T04:24:32.814Z,-10.73
2017-12-13T04:25:42.789Z,-10.8
2017-12-13T04:26:52.770Z,-10.74
2017-12-13T04:28:02.797Z,-10.76
2017-12-13T04:29:12.238Z,-10.76
2017-12-13T04:30:22.225Z,-10.74
2017-12-13T04:31:31.668Z,-10.73
2017-12-13T04:32:41.372Z,-10.71
2017-12-13T04:33:51.076Z,-10.8
2017-12-13T04:35:01.051Z,-10.83
2017-12-13T04:36:10.505Z,-10.8
2017-12-13T04:37:20.482Z,-10.76
2017-12-13T04:38:30.454Z,-10.77
2017-12-13T04:39:40.435Z,-10.69
2017-12-13T04:40:50.415Z,-10.77
2017-12-13T04:42:00.393Z,-10.8
2017-12-13T04:43:10.385Z,-11
2017-12-13T04:44:20.363Z,-10.93
2017-12-13T04:45:30.337Z,-10.97
2017-12-13T04:46:40.048Z,-11.05
2017-12-13T04:47:49.486Z,-11.13
2017-12-13T04:48:59.455Z,-11.21
2017-12-13T04:50:09.424Z,-11.31
2017-12-13T04:51:19.409Z,-11.21
2017-12-13T04:52:29.117Z,-11.28
2017-12-13T04:53:39.099Z,-11.37
2017-12-13T04:54:49.085Z,-11.42
2017-12-13T04:55:58.793Z,-11.39
2017-12-13T04:57:08.768Z,-11.38
2017-12-13T04:58:18.740Z,-11.5
2017-12-13T04:59:28.712Z,-11.39
2017-12-13T05:00:39.683Z,-11.37
2017-12-13T05:01:49.661Z,-11.38
2017-12-13T05:02:59.637Z,-11.37
2017-12-13T05:04:09.676Z,-11.35
2017-12-13T05:05:19.656Z,-11.32
2017-12-13T05:06:29.364Z,-11.35
2017-12-13T05:07:39.336Z,-11.29
2017-12-13T05:08:49.311Z,-11.2
2017-12-13T05:09:59.287Z,-11.18
2017-12-13T05:11:09.264Z,-11.17
2017-12-13T05:12:18.980Z,-11.07
2017-12-13T05:13:30.953Z,-11.1
2017-12-13T05:14:40.931Z,-10.99
2017-12-13T05:15:50.904Z,-10.96
2017-12-13T05:17:00.880Z,-10.97
2017-12-13T05:18:10.851Z,-11.03
2017-12-13T05:19:20.824Z,-10.96
2017-12-13T05:20:30.864Z,-10.95
2017-12-13T05:21:40.834Z,-10.97
2017-12-13T05:22:50.813Z,-10.96
2017-12-13T05:24:00.796Z,-10.99
2017-12-13T05:25:10.775Z,-10.97
2017-12-13T05:26:20.770Z,-10.99
2017-12-13T05:27:30.746Z,-10.93
2017-12-13T05:28:40.718Z,-10.96
2017-12-13T05:29:50.421Z,-10.95
2017-12-13T05:31:00.137Z,-11.06
2017-12-13T05:32:09.313Z,-11.03
2017-12-13T05:33:19.289Z,-11.06
2017-12-13T05:34:29.261Z,-11.11
2017-12-13T05:35:38.976Z,-11.11
2017-12-13T05:36:48.946Z,-11.26
2017-12-13T05:37:58.386Z,-11.17
2017-12-13T05:39:08.093Z,-11.24
2017-12-13T05:40:18.063Z,-11.32
2017-12-13T05:41:27.771Z,-11.26
2017-12-13T05:42:37.756Z,-11.29
2017-12-13T05:43:47.730Z,-11.26
2017-12-13T05:44:57.697Z,-11.31
2017-12-13T05:46:07.672Z,-11.39
2017-12-13T05:47:17.643Z,-11.32
2017-12-13T05:48:27.626Z,-11.38
2017-12-13T05:49:37.601Z,-11.29
2017-12-13T05:50:47.578Z,-11.32
2017-12-13T05:51:57.286Z,-11.35
2017-12-13T05:53:06.989Z,-11.32
2017-12-13T05:54:16.972Z,-11.31
2017-12-13T05:55:26.944Z,-11.37
2017-12-13T05:56:36.915Z,-11.32
2017-12-13T05:57:46.623Z,-11.29
2017-12-13T05:58:56.593Z,-11.34
2017-12-13T06:00:06.564Z,-11.29
2017-12-13T06:01:16.535Z,-11.37
2017-12-13T06:02:26.245Z,-11.24
2017-12-13T06:03:36.210Z,-11.29
2017-12-13T06:04:46.191Z,-11.29
2017-12-13T06:05:56.159Z,-11.26
2017-12-13T06:07:05.862Z,-11.24
2017-12-13T06:08:15.837Z,-11.18
2017-12-13T06:09:25.543Z,-11.31
2017-12-13T06:10:35.516Z,-11.29
2017-12-13T06:11:45.490Z,-11.24
2017-12-13T06:12:55.458Z,-11.24
2017-12-13T06:14:05.441Z,-11.24
2017-12-13T06:15:14.885Z,-11.28
2017-12-13T06:16:24.594Z,-11.17
2017-12-13T06:17:34.570Z,-11.32
2017-12-13T06:18:44.281Z,-11.28
2017-12-13T06:19:54.249Z,-11.16
2017-12-13T06:21:04.017Z,-11.24
2017-12-13T06:22:13.734Z,-11.24
2017-12-13T06:23:23.442Z,-11.24
2017-12-13T06:24:33.157Z,-11.23
2017-12-13T06:25:43.144Z,-11.16
2017-12-13T06:26:53.117Z,-11.16
2017-12-13T06:28:03.103Z,-11.07
2017-12-13T06:29:13.073Z,-11.1
2017-12-13T06:30:23.042Z,-11.07
2017-12-13T06:31:33.017Z,-11.14
2017-12-13T06:32:42.994Z,-11.2
2017-12-13T06:33:52.962Z,-11.16
2017-12-13T06:35:02.938Z,-11.11
2017-12-13T06:36:12.663Z,-11.17
2017-12-13T06:37:22.645Z,-11.07
2017-12-13T06:38:32.622Z,-11
2017-12-13T06:39:42.336Z,-11.16
2017-12-13T06:40:52.311Z,-11.06
2017-12-13T06:42:02.286Z,-11.05
2017-12-13T06:43:12.259Z,-11.02
2017-12-13T06:44:22.242Z,-11.11
2017-12-13T06:45:32.220Z,-11.02
2017-12-13T06:46:42.199Z,-10.92
2017-12-13T06:47:52.167Z,-10.95
2017-12-13T06:49:01.879Z,-10.92
2017-12-13T06:50:11.328Z,-10.88
2017-12-13T06:51:21.041Z,-10.85
2017-12-13T06:52:30.797Z,-10.8
2017-12-13T06:53:40.510Z,-10.67
2017-12-13T06:54:50.482Z,-10.76
2017-12-13T06:56:00.205Z,-10.73
2017-12-13T06:57:10.200Z,-10.76
2017-12-13T06:58:20.186Z,-10.62
2017-12-13T06:59:30.155Z,-10.67
2017-12-13T07:00:40.129Z,-10.59
2017-12-13T07:01:49.835Z,-10.63
2017-12-13T07:02:59.808Z,-10.62
2017-12-13T07:04:09.525Z,-10.46
2017-12-13T07:05:19.238Z,-10.53
2017-12-13T07:06:28.947Z,-10.59
2017-12-13T07:07:38.657Z,-10.6
2017-12-13T07:08:48.633Z,-10.71
2017-12-13T07:09:58.608Z,-10.6
2017-12-13T07:11:08.058Z,-10.59
2017-12-13T07:12:18.037Z,-10.59
2017-12-13T07:13:28.012Z,-10.57
2017-12-13T07:14:37.986Z,-10.59
2017-12-13T07:15:47.957Z,-10.6
2017-12-13T07:16:57.404Z,-10.6
2017-12-13T07:18:07.117Z,-10.62
2017-12-13T07:19:17.090Z,-10.62
2017-12-13T07:20:26.801Z,-10.53
2017-12-13T07:21:36.780Z,-10.55
2017-12-13T07:22:46.755Z,-10.66
2017-12-13T07:23:56.730Z,-10.69
2017-12-13T07:25:06.710Z,-10.62
2017-12-13T07:26:16.688Z,-10.66
2017-12-13T07:27:26.666Z,-10.74
2017-12-13T07:28:36.639Z,-10.77
2017-12-13T07:29:46.617Z,-10.77
2017-12-13T07:30:56.592Z,-10.78
2017-12-13T07:32:06.569Z,-10.73
2017-12-13T07:33:16.287Z,-10.73
2017-12-13T07:34:26.266Z,-10.66
2017-12-13T07:35:36.251Z,-10.77
2017-12-13T07:36:46.230Z,-10.69
2017-12-13T07:37:56.208Z,-10.65
2017-12-13T07:39:06.181Z,-10.76
2017-12-13T07:40:16.156Z,-10.77
2017-12-13T07:41:26.130Z,-10.8
2017-12-13T07:42:36.103Z,-10.67
2017-12-13T07:43:45.825Z,-10.69
2017-12-13T07:44:55.531Z,-10.63
2017-12-13T07:46:05.508Z,-10.59
2017-12-13T07:47:15.234Z,-10.55
2017-12-13T07:48:24.684Z,-10.41
2017-12-13T07:49:34.403Z,-10.38
2017-12-13T07:50:44.374Z,-10.44
2017-12-13T07:51:54.347Z,-10.41
2017-12-13T07:53:04.323Z,-10.35
2017-12-13T07:54:14.296Z,-10.27
2017-12-13T07:55:24.277Z,-10.28
2017-12-13T07:56:33.996Z,-10.24
2017-12-13T07:57:43.973Z,-10.23
2017-12-13T07:58:53.677Z,-10.2
2017-12-13T08:00:03.647Z,-10.28
2017-12-13T08:01:13.103Z,-10.31
2017-12-13T08:02:22.818Z,-10.35
2017-12-13T08:03:32.535Z,-10.44
2017-12-13T08:04:42.513Z,-10.49
2017-12-13T08:05:52.489Z,-10.52
2017-12-13T08:07:02.202Z,-10.56
2017-12-13T08:08:12.177Z,-10.53
2017-12-13T08:09:22.154Z,-10.59
2017-12-13T08:10:32.143Z,-10.66
2017-12-13T08:11:41.857Z,-10.74
2017-12-13T08:12:51.567Z,-10.73
2017-12-13T08:14:01.278Z,-10.76
2017-12-13T08:15:11.256Z,-10.73
2017-12-13T08:16:20.963Z,-10.83
2017-12-13T08:17:30.679Z,-10.83
2017-12-13T08:18:40.664Z,-10.8
2017-12-13T08:19:50.639Z,-10.85
2017-12-13T08:21:00.621Z,-10.81
2017-12-13T08:22:10.602Z,-10.78
2017-12-13T08:23:20.047Z,-10.83
2017-12-13T08:24:29.766Z,-10.88
2017-12-13T08:25:39.788Z,-10.78
2017-12-13T08:26:48.966Z,-10.8
2017-12-13T08:27:58.704Z,-10.81
2017-12-13T08:29:08.417Z,-10.74
2017-12-13T08:30:17.861Z,-10.8
2017-12-13T08:31:27.835Z,-10.78
2017-12-13T08:32:37.814Z,-10.78
2017-12-13T08:33:47.529Z,-10.77
2017-12-13T08:34:57.510Z,-10.67
2017-12-13T08:36:07.230Z,-10.62
2017-12-13T08:37:17.213Z,-10.59
2017-12-13T08:38:27.193Z,-10.44
2017-12-13T08:39:36.900Z,-10.39
2017-12-13T08:40:46.879Z,-10.36
2017-12-13T08:41:56.602Z,-10.3
2017-12-13T08:43:06.575Z,-10.18
2017-12-13T08:44:16.557Z,-10.18
2017-12-13T08:45:26.537Z,-10.36
2017-12-13T08:46:36.515Z,-10.35
2017-12-13T08:47:46.227Z,-10.44
2017-12-13T08:48:56.200Z,-10.41
2017-12-13T08:50:05.643Z,-10.52
2017-12-13T08:51:15.628Z,-10.45
2017-12-13T08:52:25.609Z,-10.55
2017-12-13T08:53:35.590Z,-10.57
2017-12-13T08:54:45.565Z,-10.49
2017-12-13T08:55:55.274Z,-10.45
2017-12-13T08:57:04.981Z,-10.46
2017-12-13T08:58:14.951Z,-10.36
2017-12-13T08:59:24.927Z,-10.44
2017-12-13T09:00:34.902Z,-10.36
2017-12-13T09:01:44.886Z,-10.24
2017-12-13T09:02:54.598Z,-10.27
2017-12-13T09:04:04.599Z,-10.17
2017-12-13T09:05:14.041Z,-10.23
2017-12-13T09:06:23.753Z,-10.24
2017-12-13T09:07:33.722Z,-10.3
2017-12-13T09:08:43.704Z,-10.31
2017-12-13T09:09:53.415Z,-10.55
2017-12-13T09:11:03.122Z,-10.52
2017-12-13T09:12:13.096Z,-10.55
2017-12-13T09:13:22.808Z,-10.56
2017-12-13T09:14:32.785Z,-10.44
2017-12-13T09:15:42.494Z,-10.55
2017-12-13T09:16:52.203Z,-10.59
2017-12-13T09:18:01.912Z,-10.62
2017-12-13T09:19:11.886Z,-10.57
2017-12-13T09:20:21.599Z,-10.65
2017-12-13T09:21:31.573Z,-10.69
2017-12-13T09:22:41.288Z,-10.69
2017-12-13T09:23:50.998Z,-10.77
2017-12-13T09:25:00.976Z,-10.73
2017-12-13T09:26:10.688Z,-10.81
2017-12-13T09:27:20.659Z,-10.81
2017-12-13T09:28:30.638Z,-10.73
2017-12-13T09:29:40.610Z,-10.8
2017-12-13T09:30:50.326Z,-10.73
2017-12-13T09:32:00.298Z,-10.73
2017-12-13T09:33:10.271Z,-10.77
2017-12-13T09:34:20.246Z,-10.76
2017-12-13T09:35:30.252Z,-10.81
2017-12-13T09:36:40.236Z,-10.77
2017-12-13T09:37:50.222Z,-10.8
2017-12-13T09:39:00.196Z,-10.78
2017-12-13T09:40:09.908Z,-10.81
2017-12-13T09:41:19.890Z,-10.74
2017-12-13T09:42:29.865Z,-10.76
2017-12-13T09:43:39.839Z,-10.81
2017-12-13T09:44:49.825Z,-10.83
2017-12-13T09:45:59.802Z,-10.81
2017-12-13T09:47:10.215Z,-10.77
2017-12-13T09:48:19.957Z,-10.8
2017-12-13T09:49:29.667Z,-10.78
2017-12-13T09:50:39.721Z,-10.77
2017-12-13T09:51:49.696Z,-10.85
2017-12-13T09:52:59.674Z,-10.77
2017-12-13T09:54:09.656Z,-10.81
2017-12-13T09:55:19.367Z,-10.85
2017-12-13T09:56:29.359Z,-10.87
2017-12-13T09:57:39.117Z,-10.8
2017-12-13T09:58:49.092Z,-10.74
2017-12-13T09:59:59.075Z,-10.77
2017-12-13T10:01:09.055Z,-10.76
2017-12-13T10:02:19.027Z,-10.8
2017-12-13T10:03:29.001Z,-10.8
2017-12-13T10:04:39.081Z,-10.74
2017-12-13T10:05:48.789Z,-10.73
2017-12-13T10:06:58.771Z,-10.74
2017-12-13T10:08:08.744Z,-10.74
2017-12-13T10:09:18.712Z,-10.76
2017-12-13T10:10:28.425Z,-10.59
2017-12-13T10:11:38.398Z,-10.71
2017-12-13T10:12:48.393Z,-10.62
2017-12-13T10:13:58.366Z,-10.56
2017-12-13T10:15:08.111Z,-10.57
2017-12-13T10:16:18.138Z,-10.41
2017-12-13T10:17:28.114Z,-10.38
2017-12-13T10:18:37.360Z,-10.36
2017-12-13T10:19:46.806Z,-10.3
2017-12-13T10:20:56.786Z,-10.23
2017-12-13T10:22:06.498Z,-10.25
2017-12-13T10:23:16.486Z,-10.34
2017-12-13T10:24:26.193Z,-10.35
2017-12-13T10:25:36.176Z,-10.36
2017-12-13T10:26:46.161Z,-10.41
2017-12-13T10:27:56.143Z,-10.42
2017-12-13T10:29:06.126Z,-10.34
2017-12-13T10:30:16.101Z,-10.35
2017-12-13T10:31:26.076Z,-10.35
2017-12-13T10:32:36.059Z,-10.38
2017-12-13T10:33:46.036Z,-10.38
2017-12-13T10:34:56.009Z,-10.41
2017-12-13T10:36:05.984Z,-10.38
2017-12-13T10:37:15.964Z,-10.38
2017-12-13T10:38:25.947Z,-10.44
2017-12-13T10:39:35.657Z,-10.41
2017-12-13T10:40:45.629Z,-10.41
2017-12-13T10:41:55.609Z,-10.41
2017-12-13T10:43:05.059Z,-10.45
2017-12-13T10:44:15.041Z,-10.45
2017-12-13T10:45:24.759Z,-10.41
2017-12-13T10:46:34.738Z,-10.48
2017-12-13T10:47:44.461Z,-10.56
2017-12-13T10:48:54.445Z,-10.46
2017-12-13T10:50:04.416Z,-10.55
2017-12-13T10:51:14.398Z,-10.6
2017-12-13T10:52:24.106Z,-10.48
2017-12-13T10:53:34.080Z,-10.46
2017-12-13T10:54:44.061Z,-10.57
2017-12-13T10:55:54.039Z,-10.57
2017-12-13T10:57:05.749Z,-10.38
2017-12-13T10:58:15.721Z,-10.39
2017-12-13T10:59:25.702Z,-10.44
2017-12-13T11:00:35.416Z,-10.36
2017-12-13T11:01:45.403Z,-10.44
2017-12-13T11:02:55.107Z,-10.42
2017-12-13T11:04:04.817Z,-10.42
2017-12-13T11:05:14.264Z,-10.38
2017-12-13T11:06:24.240Z,-10.42
2017-12-13T11:07:34.214Z,-10.39
2017-12-13T11:08:44.187Z,-10.36
2017-12-13T11:09:54.164Z,-10.38
2017-12-13T11:11:04.141Z,-10.44
2017-12-13T11:12:14.116Z,-10.39
2017-12-13T11:13:23.560Z,-10.39
2017-12-13T11:14:33.546Z,-10.44
2017-12-13T11:15:43.521Z,-10.39
2017-12-13T11:16:53.496Z,-10.44
2017-12-13T11:18:03.477Z,-10.38
2017-12-13T11:19:13.185Z,-10.3
2017-12-13T11:20:23.182Z,-10.28
2017-12-13T11:21:33.159Z,-10.23
2017-12-13T11:22:43.130Z,-10.27
2017-12-13T11:23:52.845Z,-10.24
2017-12-13T11:25:02.824Z,-10.2
2017-12-13T11:26:13.051Z,-10.23
2017-12-13T11:27:22.759Z,-10.2
2017-12-13T11:28:32.741Z,-10.23
2017-12-13T11:29:42.715Z,-10.23
2017-12-13T11:30:52.706Z,-10.18
2017-12-13T11:32:02.683Z,-10.2
2017-12-13T11:33:12.654Z,-10.12
2017-12-13T11:34:22.363Z,-10.18
2017-12-13T11:35:32.072Z,-10.14
2017-12-13T11:36:41.781Z,-10.18
2017-12-13T11:37:53.493Z,-10.17
2017-12-13T11:39:03.493Z,-10.14
2017-12-13T11:40:13.469Z,-10.23
2017-12-13T11:41:23.187Z,-10.12
2017-12-13T11:42:33.174Z,-10.12
2017-12-13T11:43:43.157Z,-10.24
2017-12-13T11:44:52.871Z,-10.2
2017-12-13T11:46:02.854Z,-10.2
2017-12-13T11:47:13.401Z,-10.07
2017-12-13T11:48:23.374Z,-10.12
2017-12-13T11:49:33.351Z,-10.21
2017-12-13T11:50:43.324Z,-10.06
2017-12-13T11:51:53.295Z,-10.06
2017-12-13T11:53:03.270Z,-10.12
2017-12-13T11:54:13.246Z,-10.07
2017-12-13T11:55:23.372Z,-10.1
2017-12-13T11:56:33.349Z,-10.2
2017-12-13T11:57:43.063Z,-10.06
2017-12-13T11:58:53.041Z,-10.09
2017-12-13T12:00:02.752Z,-10.07
2017-12-13T12:01:12.736Z,-10.17
2017-12-13T12:02:22.471Z,-10.14
2017-12-13T12:03:32.455Z,-10.09
2017-12-13T12:04:42.431Z,-10.06
2017-12-13T12:05:52.145Z,-10.05
2017-12-13T12:07:02.162Z,-10.07
2017-12-13T12:08:11.873Z,-10.03
2017-12-13T12:09:21.847Z,-10.05
2017-12-13T12:10:31.820Z,-10.03
2017-12-13T12:11:41.538Z,-10.06
2017-12-13T12:12:51.508Z,-10.03
2017-12-13T12:14:01.218Z,-10.03
2017-12-13T12:15:11.194Z,-10.03
2017-12-13T12:16:20.920Z,-10.05
2017-12-13T12:17:30.627Z,-10.03
2017-12-13T12:18:40.338Z,-10.1
2017-12-13T12:19:50.319Z,-10.18
2017-12-13T12:21:00.296Z,-10.07
2017-12-13T12:22:10.030Z,-10.2
2017-12-13T12:23:20.008Z,-10.05
2017-12-13T12:24:29.991Z,-10.18
2017-12-13T12:25:39.961Z,-10.05
2017-12-13T12:26:49.939Z,-10.14
2017-12-13T12:27:59.920Z,-10.17
2017-12-13T12:29:09.896Z,-10.15
2017-12-13T12:30:19.872Z,-10.14
2017-12-13T12:31:29.320Z,-10.17
2017-12-13T12:32:39.302Z,-10.05
2017-12-13T12:33:49.013Z,-9.99
2017-12-13T12:34:58.987Z,-10.09
2017-12-13T12:36:08.962Z,-10.17
2017-12-13T12:37:18.941Z,-10.15
2017-12-13T12:38:28.976Z,-10.12
2017-12-13T12:39:38.951Z,-10.17
2017-12-13T12:40:48.925Z,-10.05
2017-12-13T12:41:58.637Z,-10.12
2017-12-13T12:43:08.613Z,-10.07
2017-12-13T12:44:18.589Z,-10.1
2017-12-13T12:45:28.566Z,-10.1
2017-12-13T12:46:38.551Z,-10.14
2017-12-13T12:47:50.543Z,-10.21
2017-12-13T12:49:00.519Z,-10.1
2017-12-13T12:50:10.499Z,-10.07
2017-12-13T12:51:20.470Z,-10.1
2017-12-13T12:52:30.503Z,-10.05
2017-12-13T12:53:40.522Z,-10.1
2017-12-13T12:54:49.963Z,-10.15
2017-12-13T12:55:59.461Z,-10.09
2017-12-13T12:57:09.169Z,-10.1
2017-12-13T12:58:19.197Z,-10.05
2017-12-13T12:59:29.175Z,-10.06
2017-12-13T13:00:39.302Z,-10.15
2017-12-13T13:01:49.276Z,-10.14
2017-12-13T13:02:59.249Z,-10.09
2017-12-13T13:04:09.506Z,-10.2
2017-12-13T13:05:19.475Z,-10.12
2017-12-13T13:06:29.512Z,-10.17
2017-12-13T13:07:39.807Z,-10.09
2017-12-13T13:08:50.271Z,-10.14
2017-12-13T13:10:00.529Z,-10.05
2017-12-13T13:11:10.217Z,-10.03
2017-12-13T13:12:20.190Z,-10.02
2017-12-13T13:13:30.160Z,-10.05
2017-12-13T13:14:40.344Z,-10.03
2017-12-13T13:15:50.604Z,-10.09
2017-12-13T13:17:00.864Z,-10.03
2017-12-13T13:18:10.851Z,-10.05
2017-12-13T13:19:21.115Z,-10.03
2017-12-13T13:20:31.382Z,-9.99
2017-12-13T13:21:41.078Z,-10.03
2017-12-13T13:22:51.344Z,-10.02
2017-12-13T13:24:01.633Z,-9.94
2017-12-13T13:25:12.393Z,-10.03
2017-12-13T13:26:22.372Z,-9.99
2017-12-13T13:27:32.359Z,-10.06
2017-12-13T13:28:42.337Z,-10.02
2017-12-13T13:29:52.610Z,-9.86
2017-12-13T13:31:02.876Z,-10
2017-12-13T13:32:13.841Z,-10
2017-12-13T13:33:24.313Z,-10
2017-12-13T13:34:34.573Z,-9.88
2017-12-13T13:35:44.551Z,-9.94
2017-12-13T13:36:54.823Z,-9.82
2017-12-13T13:38:05.085Z,-9.85
2017-12-13T13:39:15.352Z,-9.92
2017-12-13T13:40:25.620Z,-9.94
2017-12-13T13:41:35.882Z,-9.82
2017-12-13T13:42:46.161Z,-9.82
2017-12-13T13:43:56.427Z,-9.86
2017-12-13T13:45:06.736Z,-9.76
2017-12-13T13:46:16.483Z,-9.82
2017-12-13T13:47:26.738Z,-9.84
2017-12-13T13:48:37.054Z,-9.85
2017-12-13T13:49:47.306Z,-9.88
2017-12-13T13:50:57.564Z,-9.82
2017-12-13T13:52:07.456Z,-9.84
2017-12-13T13:53:17.713Z,-9.79
2017-12-13T13:54:27.971Z,-9.78
2017-12-13T13:55:38.219Z,-9.74
2017-12-13T13:56:48.468Z,-9.78
2017-12-13T13:57:58.727Z,-9.79
2017-12-13T13:59:08.977Z,-9.7
2017-12-13T14:00:18.938Z,-9.7
2017-12-13T14:01:29.183Z,-9.73
2017-12-13T14:02:38.862Z,-9.71
2017-12-13T14:03:49.261Z,-9.74
2017-12-13T14:04:59.236Z,-9.73
2017-12-13T14:06:09.488Z,-9.7
2017-12-13T14:07:19.452Z,-9.71
2017-12-13T14:08:29.717Z,-9.73
2017-12-13T14:09:39.958Z,-9.73
2017-12-13T14:10:49.926Z,-9.7
2017-12-13T14:12:00.178Z,-9.73
2017-12-13T14:13:10.426Z,-9.61
2017-12-13T14:14:20.680Z,-9.61
2017-12-13T14:15:30.644Z,-9.67
2017-12-13T14:16:40.890Z,-9.64
2017-12-13T14:17:51.143Z,-9.65
2017-12-13T14:19:01.103Z,-9.64
2017-12-13T14:20:11.352Z,-9.61
2017-12-13T14:21:21.600Z,-9.6
2017-12-13T14:22:31.562Z,-9.61
2017-12-13T14:23:41.806Z,-9.64
2017-12-13T14:24:52.104Z,-9.55
2017-12-13T14:26:02.354Z,-9.6
2017-12-13T14:27:12.763Z,-9.53
2017-12-13T14:28:22.735Z,-9.55
2017-12-13T14:29:32.995Z,-9.46
2017-12-13T14:30:43.254Z,-9.47
2017-12-13T14:31:53.277Z,-9.5
2017-12-13T14:33:03.528Z,-9.49
2017-12-13T14:34:13.782Z,-9.43
2017-12-13T14:35:23.754Z,-9.39
2017-12-13T14:36:33.724Z,-9.43
2017-12-13T14:37:43.979Z,-9.35
2017-12-13T14:38:53.994Z,-9.39
2017-12-13T14:40:03.955Z,-9.43
2017-12-13T14:41:14.217Z,-9.31